Time;durP1;ratioP1;P1;durP2;ratioP2;P2;SDS_P1;SDS_P2;PMS_P1;PMS_P2;Temp;Humidity;BMP_temperature;BMP_pressure;BME280_temperature;BME280_humidity;BME280_pressure;Samples;Min_cycle;Max_cycle;Signal;HPM_P1;HPM_P2
2024/03/17 00:01:04;;;;;;;9.70;2.75;;;7.60;99.90;;;;;;5074440;28;20020;-54
2024/03/17 00:03:31;;;;;;;11.00;2.95;;;7.50;99.90;;;;;;5074410;28;20476;-54
2024/03/17 00:06:00;;;;;;;8.35;2.65;;;7.60;99.90;;;;;;5074262;28;20032;-56
2024/03/17 00:08:26;;;;;;;6.95;2.30;;;7.60;99.90;;;;;;5074299;28;20074;-56
2024/03/17 00:10:55;;;;;;;15.45;3.97;;;7.60;99.90;;;;;;5074094;28;20496;-55
2024/03/17 00:13:24;;;;;;;8.80;3.03;;;7.50;99.90;;;;;;5073714;28;20025;-55
2024/03/17 00:15:50;;;;;;;9.25;2.90;;;7.50;99.90;;;;;;5074474;28;20028;-42
2024/03/17 00:18:17;;;;;;;10.88;2.80;;;7.50;99.90;;;;;;5074332;28;20476;-41
2024/03/17 00:20:43;;;;;;;9.15;2.97;;;7.50;99.90;;;;;;5072965;28;20039;-40
2024/03/17 00:23:11;;;;;;;6.10;2.45;;;7.50;99.90;;;;;;5073880;28;20388;-48
2024/03/17 00:25:37;;;;;;;12.77;3.42;;;7.40;99.90;;;;;;5074121;28;20028;-43
2024/03/17 00:28:03;;;;;;;9.38;3.40;;;7.40;99.90;;;;;;5074193;28;20211;-42
2024/03/17 00:30:29;;;;;;;10.13;2.92;;;7.30;99.90;;;;;;5073696;28;20564;-40
2024/03/17 00:32:55;;;;;;;8.68;3.58;;;7.30;99.90;;;;;;5073879;28;20024;-40
2024/03/17 00:35:21;;;;;;;13.73;4.22;;;7.30;99.90;;;;;;5073696;28;20033;-40
2024/03/17 00:37:50;;;;;;;12.07;3.17;;;7.40;99.90;;;;;;5073745;28;20082;-41
2024/03/17 00:40:20;;;;;;;9.52;3.33;;;7.40;99.90;;;;;;5073717;28;20055;-45
2024/03/17 00:42:46;;;;;;;9.18;3.60;;;7.30;99.90;;;;;;5073949;28;20547;-42
2024/03/17 00:45:12;;;;;;;20.70;4.40;;;7.40;99.90;;;;;;5073921;28;20481;-41
2024/03/17 00:47:38;;;;;;;14.00;3.97;;;7.40;99.90;;;;;;5073297;28;20033;-43
2024/03/17 00:50:06;;;;;;;11.73;3.40;;;7.40;99.90;;;;;;5073753;28;20384;-44
2024/03/17 00:52:32;;;;;;;6.97;3.33;;;7.30;99.90;;;;;;5073493;28;20052;-40
2024/03/17 00:55:16;;;;;;;9.10;3.45;;;7.30;99.90;;;;;;5073384;28;20077;-40
2024/03/17 00:57:42;;;;;;;8.57;4.35;;;7.30;99.90;;;;;;5073670;28;20477;-76
2024/03/17 01:00:11;;;;;;;13.13;4.45;;;7.30;99.90;;;;;;5072417;28;20108;-45
2024/03/17 01:02:37;;;;;;;13.25;4.38;;;7.30;99.90;;;;;;5055636;28;20120;-42
2024/03/17 01:05:06;;;;;;;9.30;4.03;;;7.40;99.90;;;;;;5073269;28;20107;-39
2024/03/17 01:07:33;;;;;;;29.98;5.22;;;7.40;99.90;;;;;;5073015;28;20055;-39
2024/03/17 01:09:59;;;;;;;17.02;3.90;;;7.40;99.90;;;;;;5073138;28;20043;-40
2024/03/17 01:12:25;;;;;;;19.23;4.45;;;7.40;99.90;;;;;;5073038;28;20127;-59
2024/03/17 01:14:51;;;;;;;8.52;4.25;;;7.40;99.90;;;;;;5073194;28;20515;-40
2024/03/17 01:17:18;;;;;;;12.10;4.03;;;7.40;99.90;;;;;;5071535;28;20056;-45
2024/03/17 01:19:44;;;;;;;12.82;5.25;;;7.40;99.90;;;;;;5072844;28;20025;-45
2024/03/17 01:22:10;;;;;;;10.38;4.22;;;7.40;99.90;;;;;;5072812;28;20024;-40
2024/03/17 01:24:37;;;;;;;14.25;4.80;;;7.40;99.90;;;;;;5072829;28;20433;-44
2024/03/17 01:27:03;;;;;;;12.07;4.22;;;7.50;99.90;;;;;;5072202;28;20020;-39
2024/03/17 01:29:28;;;;;;;13.55;3.60;;;7.60;99.90;;;;;;5072785;28;20126;-40
2024/03/17 01:31:55;;;;;;;13.05;4.35;;;7.60;99.90;;;;;;5072776;28;20032;-40
2024/03/17 01:34:21;;;;;;;8.60;4.05;;;7.50;99.90;;;;;;5072936;28;20477;-41
2024/03/17 01:36:47;;;;;;;8.88;3.97;;;7.60;99.90;;;;;;5072449;28;20043;-39
2024/03/17 01:39:13;;;;;;;10.80;3.70;;;7.50;99.90;;;;;;5072652;28;20397;-40
2024/03/17 01:41:39;;;;;;;4.05;3.35;;;7.50;99.90;;;;;;5071237;28;20048;-41
2024/03/17 01:44:05;;;;;;;14.57;4.22;;;7.50;99.90;;;;;;5072565;28;20029;-40
2024/03/17 01:46:31;;;;;;;7.80;3.42;;;7.50;99.90;;;;;;5072590;28;20035;-40
2024/03/17 01:48:57;;;;;;;15.13;4.32;;;7.40;99.90;;;;;;5072496;28;20033;-41
2024/03/17 01:51:24;;;;;;;7.05;3.53;;;7.40;99.90;;;;;;5072732;28;20427;-41
2024/03/17 01:53:50;;;;;;;6.72;3.83;;;7.40;99.90;;;;;;5072146;28;20043;-57
2024/03/17 01:56:17;;;;;;;9.55;3.88;;;7.40;99.90;;;;;;5072701;28;20020;-65
2024/03/17 01:58:45;;;;;;;11.50;4.53;;;7.40;99.90;;;;;;5072693;28;20441;-42
2024/03/17 02:01:15;;;;;;;15.00;4.32;;;7.40;99.90;;;;;;5072588;28;20028;-42
2024/03/17 02:03:41;;;;;;;13.02;3.65;;;7.40;99.90;;;;;;5071478;28;20085;-41
2024/03/17 02:06:09;;;;;;;6.00;4.07;;;7.40;99.90;;;;;;5071329;28;20037;-40
2024/03/17 02:08:48;;;;;;;11.25;4.47;;;7.40;99.90;;;;;;5072567;28;20481;-40
2024/03/17 02:11:28;;;;;;;11.38;3.72;;;7.50;99.90;;;;;;5071866;28;20078;-41
2024/03/17 02:13:55;;;;;;;7.68;4.15;;;7.60;99.90;;;;;;5072150;28;20033;-43
2024/03/17 02:16:22;;;;;;;11.57;4.03;;;7.60;99.90;;;;;;5072206;28;20024;-41
2024/03/17 02:18:47;;;;;;;9.50;4.15;;;7.60;99.90;;;;;;5072014;28;20029;-44
2024/03/17 02:21:14;;;;;;;9.30;4.22;;;7.60;99.90;;;;;;5070813;28;20028;-41
2024/03/17 02:23:43;;;;;;;9.30;3.70;;;7.70;99.90;;;;;;5072372;28;20035;-40
2024/03/17 02:26:09;;;;;;;14.25;4.05;;;7.70;99.90;;;;;;5072093;28;20025;-42
2024/03/17 02:28:39;;;;;;;14.60;4.38;;;7.70;99.90;;;;;;5072052;28;20078;-41
2024/03/17 02:31:08;;;;;;;7.47;4.03;;;7.70;99.90;;;;;;5070891;28;20052;-40
2024/03/17 02:33:34;;;;;;;12.45;4.10;;;7.70;99.90;;;;;;5071933;28;20381;-47
2024/03/17 02:36:00;;;;;;;9.85;4.38;;;7.70;99.90;;;;;;5071965;28;20480;-42
2024/03/17 02:41:10;;;;;;;7.95;3.90;;;7.80;99.90;;;;;;5076584;28;20036;-55
2024/03/17 02:43:36;;;;;;;7.40;4.07;;;7.70;99.90;;;;;;5076102;28;20029;-55
2024/03/17 02:46:05;;;;;;;10.30;3.90;;;7.80;99.90;;;;;;5074493;28;20025;-56
2024/03/17 02:48:31;;;;;;;8.90;3.58;;;7.80;99.90;;;;;;5075991;28;20496;-55
2024/03/17 02:50:57;;;;;;;10.25;4.30;;;7.80;99.90;;;;;;5075804;28;20020;-56
2024/03/17 02:53:23;;;;;;;8.80;3.97;;;7.70;99.90;;;;;;5076016;28;20058;-55
2024/03/17 02:55:48;;;;;;;22.33;6.40;;;7.70;99.90;;;;;;5075857;28;20036;-51
2024/03/17 02:58:14;;;;;;;15.52;4.38;;;7.70;99.90;;;;;;5074287;28;20031;-52
2024/03/17 03:00:40;;;;;;;11.73;5.05;;;7.70;99.90;;;;;;5075549;28;20530;-54
2024/03/17 03:03:05;;;;;;;8.18;3.90;;;7.80;99.90;;;;;;5075273;28;20075;-56
2024/03/17 03:05:31;;;;;;;9.00;4.38;;;7.80;99.90;;;;;;5075489;28;20033;-55
2024/03/17 03:07:57;;;;;;;9.57;3.95;;;7.90;99.90;;;;;;5075437;28;20035;-55
2024/03/17 03:10:23;;;;;;;12.23;4.35;;;7.90;99.90;;;;;;5075150;28;20036;-64
2024/03/17 03:12:49;;;;;;;11.40;3.92;;;7.80;99.90;;;;;;5074066;28;20024;-49
2024/03/17 03:15:15;;;;;;;8.88;4.32;;;7.80;99.90;;;;;;5075206;28;20029;-57
2024/03/17 03:17:40;;;;;;;7.90;3.55;;;7.80;99.90;;;;;;5075199;28;20032;-56
2024/03/17 03:20:06;;;;;;;7.45;3.58;;;7.80;99.90;;;;;;5075012;28;20055;-56
2024/03/17 03:22:32;;;;;;;10.50;4.20;;;7.70;99.90;;;;;;5075074;28;20032;-55
2024/03/17 03:24:57;;;;;;;7.32;3.90;;;7.80;99.90;;;;;;5075160;28;20029;-53
2024/03/17 03:27:24;;;;;;;8.90;4.13;;;7.80;99.90;;;;;;5075123;28;20028;-55
2024/03/17 03:29:50;;;;;;;8.85;4.32;;;7.90;99.90;;;;;;5075300;28;20591;-52
2024/03/17 03:32:17;;;;;;;5.72;4.10;;;7.90;99.90;;;;;;5075022;28;20029;-57
2024/03/17 03:34:43;;;;;;;6.50;3.80;;;7.90;99.90;;;;;;5074835;28;20033;-53
2024/03/17 03:37:10;;;;;;;16.60;4.13;;;7.80;99.90;;;;;;5074824;28;20094;-56
2024/03/17 03:39:36;;;;;;;10.50;4.47;;;7.80;99.90;;;;;;5074852;28;20396;-54
2024/03/17 03:42:02;;;;;;;7.95;4.68;;;7.80;99.90;;;;;;5074807;28;20031;-55
2024/03/17 03:44:28;;;;;;;8.57;4.50;;;7.90;99.90;;;;;;5073554;28;20389;-56
2024/03/17 03:46:58;;;;;;;7.97;4.22;;;8.00;99.90;;;;;;5074677;28;20078;-56
2024/03/17 03:49:26;;;;;;;9.27;3.90;;;8.00;99.90;;;;;;5073899;28;20051;-56
2024/03/17 03:51:52;;;;;;;8.82;4.05;;;7.90;99.90;;;;;;5074792;28;20551;-54
2024/03/17 03:54:17;;;;;;;12.07;4.63;;;8.00;99.90;;;;;;5073230;28;20115;-55
2024/03/17 03:56:44;;;;;;;5.30;3.83;;;8.00;99.90;;;;;;5075106;28;20465;-55
2024/03/17 03:59:09;;;;;;;9.50;3.78;;;8.00;99.90;;;;;;5074581;28;20452;-54
2024/03/17 04:01:35;;;;;;;6.90;3.83;;;8.00;99.90;;;;;;5074501;28;20056;-54
2024/03/17 04:04:01;;;;;;;6.38;4.13;;;7.90;99.90;;;;;;5074419;28;20566;-54
2024/03/17 04:06:26;;;;;;;8.85;4.50;;;8.00;99.90;;;;;;5074420;28;20105;-56
2024/03/17 04:08:52;;;;;;;8.15;3.75;;;8.00;99.90;;;;;;5074239;28;20119;-55
2024/03/17 04:11:18;;;;;;;8.75;4.53;;;7.90;99.90;;;;;;5073544;28;20121;-56
2024/03/17 04:13:44;;;;;;;6.43;4.57;;;7.90;99.90;;;;;;5073165;28;20029;-53
2024/03/17 04:16:10;;;;;;;8.02;5.15;;;7.90;99.90;;;;;;5074244;28;20054;-57
2024/03/17 04:18:37;;;;;;;10.23;4.32;;;8.00;99.90;;;;;;5074121;28;20016;-56
2024/03/17 04:21:06;;;;;;;5.43;3.15;;;8.00;99.90;;;;;;5074042;28;20480;-54
2024/03/17 04:23:33;;;;;;;9.07;4.68;;;8.00;99.90;;;;;;5074009;28;20106;-55
2024/03/17 04:25:59;;;;;;;8.95;4.45;;;8.00;99.90;;;;;;5073095;28;20477;-48
2024/03/17 04:28:25;;;;;;;12.02;4.50;;;8.00;99.90;;;;;;5074146;28;20496;-40
2024/03/17 04:30:51;;;;;;;10.80;5.28;;;8.10;99.90;;;;;;5074215;28;20029;-41
2024/03/17 04:33:16;;;;;;;6.38;4.07;;;8.00;99.90;;;;;;5074124;28;20032;-40
2024/03/17 04:35:42;;;;;;;7.72;4.05;;;8.00;99.90;;;;;;5073718;28;20070;-40
2024/03/17 04:38:09;;;;;;;7.75;4.38;;;7.90;99.90;;;;;;5073824;28;20052;-40
2024/03/17 04:40:43;;;;;;;8.27;4.55;;;7.90;99.90;;;;;;5073990;28;20485;-39
2024/03/17 04:43:09;;;;;;;13.85;4.80;;;7.90;99.90;;;;;;5073790;28;20039;-43
2024/03/17 04:45:35;;;;;;;13.13;5.20;;;7.90;99.90;;;;;;5073711;28;20456;-39
2024/03/17 04:48:01;;;;;;;10.10;5.05;;;7.90;99.90;;;;;;5073658;28;20029;-48
2024/03/17 04:50:31;;;;;;;18.23;5.78;;;7.90;99.90;;;;;;5073760;28;20033;-40
2024/03/17 04:52:57;;;;;;;15.98;5.38;;;7.90;99.90;;;;;;5073557;28;20036;-40
2024/03/17 04:55:23;;;;;;;11.38;5.35;;;7.90;99.90;;;;;;5073301;28;20052;-41
2024/03/17 04:57:49;;;;;;;6.30;4.50;;;7.90;99.90;;;;;;5073454;28;20036;-40
2024/03/17 05:00:17;;;;;;;14.32;4.15;;;7.90;99.90;;;;;;5072415;28;20541;-41
2024/03/17 05:02:44;;;;;;;13.25;5.32;;;7.90;99.90;;;;;;5072678;28;20028;-55
2024/03/17 05:05:10;;;;;;;10.40;4.30;;;7.90;99.90;;;;;;5073054;28;20396;-55
2024/03/17 05:07:36;;;;;;;9.68;4.72;;;7.90;99.90;;;;;;5073405;28;20371;-55
2024/03/17 05:10:02;;;;;;;12.45;6.25;;;7.90;99.90;;;;;;5073104;28;20052;-53
2024/03/17 05:12:28;;;;;;;8.38;4.90;;;8.00;99.90;;;;;;5072955;28;20102;-52
2024/03/17 05:14:53;;;;;;;9.48;5.82;;;7.90;99.90;;;;;;5072920;28;20129;-54
2024/03/17 05:17:19;;;;;;;9.20;5.10;;;7.90;99.90;;;;;;5071581;28;20020;-51
2024/03/17 05:19:45;;;;;;;11.07;6.18;;;8.00;99.90;;;;;;5072808;28;20465;-54
2024/03/17 05:22:10;;;;;;;11.23;5.38;;;7.90;99.90;;;;;;5072947;28;20017;-52
2024/03/17 05:24:36;;;;;;;11.82;5.22;;;7.90;99.90;;;;;;5072800;28;20097;-56
2024/03/17 05:27:02;;;;;;;14.15;5.18;;;7.90;99.90;;;;;;5072862;28;20081;-53
2024/03/17 05:29:28;;;;;;;11.00;5.80;;;8.00;99.90;;;;;;5072779;28;20107;-54
2024/03/17 05:31:53;;;;;;;8.38;5.18;;;8.00;99.90;;;;;;5072723;28;20029;-53
2024/03/17 05:34:19;;;;;;;11.98;5.13;;;7.90;99.90;;;;;;5072530;28;20195;-54
2024/03/17 05:36:46;;;;;;;7.90;5.03;;;7.90;99.90;;;;;;5072621;28;20389;-53
2024/03/17 05:39:12;;;;;;;9.70;4.97;;;7.80;99.90;;;;;;5071431;28;20017;-42
2024/03/17 05:41:44;;;;;;;13.30;5.20;;;7.80;99.90;;;;;;5074072;28;20635;-43
2024/03/17 05:44:10;;;;;;;16.13;5.72;;;7.80;99.90;;;;;;5072129;28;20028;-46
2024/03/17 05:46:35;;;;;;;11.05;5.65;;;7.70;99.90;;;;;;5072742;28;20107;-40
2024/03/17 05:49:03;;;;;;;11.50;5.15;;;7.70;99.90;;;;;;5072506;28;20506;-41
2024/03/17 05:51:29;;;;;;;6.80;3.92;;;7.70;99.90;;;;;;5072065;28;20054;-40
2024/03/17 05:53:55;;;;;;;18.20;5.38;;;7.70;99.90;;;;;;5072319;28;20063;-55
2024/03/17 05:56:22;;;;;;;12.05;4.75;;;7.70;99.90;;;;;;5072661;28;20029;-57
2024/03/17 05:58:48;;;;;;;8.30;5.50;;;7.60;99.90;;;;;;5072283;28;20023;-55
2024/03/17 06:01:14;;;;;;;12.55;5.97;;;7.70;99.90;;;;;;5072597;28;20389;-55
2024/03/17 06:03:39;;;;;;;9.55;4.63;;;7.70;99.90;;;;;;5072292;28;20058;-41
2024/03/17 06:06:12;;;;;;;10.00;5.30;;;7.70;99.90;;;;;;5073056;28;20476;-42
2024/03/17 06:08:38;;;;;;;16.35;5.15;;;7.70;99.90;;;;;;5072427;28;20438;-40
2024/03/17 06:11:04;;;;;;;14.98;5.07;;;7.80;99.90;;;;;;5072237;28;20051;-55
2024/03/17 06:13:30;;;;;;;9.40;5.95;;;7.80;99.90;;;;;;5072186;28;20089;-54
2024/03/17 06:16:00;;;;;;;8.68;5.13;;;7.90;99.90;;;;;;5072056;28;20103;-55
2024/03/17 06:18:27;;;;;;;13.43;5.78;;;7.90;99.90;;;;;;5072118;28;20056;-54
2024/03/17 06:20:53;;;;;;;9.77;5.10;;;8.00;99.90;;;;;;5070812;28;20028;-40
2024/03/17 06:23:18;;;;;;;11.23;5.07;;;8.00;99.90;;;;;;5072059;28;20028;-40
2024/03/17 06:25:45;;;;;;;10.38;5.32;;;8.10;99.90;;;;;;5071917;28;20035;-43
2024/03/17 06:28:16;;;;;;;7.40;4.10;;;8.00;99.90;;;;;;5072172;28;20558;-40
2024/03/17 06:30:49;;;;;;;8.25;5.35;;;8.10;99.90;;;;;;5072137;28;20028;-41
2024/03/17 06:33:19;;;;;;;10.65;5.22;;;8.00;99.90;;;;;;5072396;28;20469;-41
2024/03/17 06:35:47;;;;;;;12.63;5.40;;;8.00;99.90;;;;;;5072194;28;20055;-40
2024/03/17 06:38:13;;;;;;;8.70;4.63;;;8.10;99.90;;;;;;5070741;28;20099;-41
2024/03/17 06:40:38;;;;;;;10.40;5.18;;;8.10;99.90;;;;;;5072098;28;20423;-40
2024/03/17 06:43:05;;;;;;;9.75;4.75;;;8.20;99.90;;;;;;5072073;28;20016;-48
2024/03/17 06:45:31;;;;;;;8.13;5.15;;;8.20;99.90;;;;;;5071883;28;20024;-64
2024/03/17 06:47:56;;;;;;;11.27;5.35;;;8.20;99.90;;;;;;5071863;28;20105;-42
2024/03/17 06:50:22;;;;;;;15.20;5.78;;;8.30;99.90;;;;;;5071903;28;20497;-41
2024/03/17 06:52:48;;;;;;;11.93;5.22;;;8.30;99.90;;;;;;5071857;28;20021;-40
2024/03/17 06:55:14;;;;;;;8.10;4.90;;;8.30;99.90;;;;;;5072048;28;20016;-40
2024/03/17 06:57:46;;;;;;;12.50;5.82;;;8.30;99.90;;;;;;5071670;28;20385;-40
2024/03/17 07:00:14;;;;;;;9.00;4.95;;;8.30;99.90;;;;;;5071516;28;20012;-40
2024/03/17 07:02:44;;;;;;;11.82;5.85;;;8.30;99.90;;;;;;5072025;28;20481;-57
2024/03/17 07:05:16;;;;;;;9.75;5.47;;;8.40;99.90;;;;;;5071689;28;20024;-45
2024/03/17 07:07:45;;;;;;;11.05;5.35;;;8.40;99.90;;;;;;5071933;28;20028;-51
2024/03/17 07:10:12;;;;;;;12.85;5.53;;;8.50;99.90;;;;;;5071487;28;20480;-40
2024/03/17 07:12:38;;;;;;;9.35;5.88;;;8.60;99.90;;;;;;5070583;28;20032;-43
2024/03/17 07:15:05;;;;;;;15.20;6.07;;;8.70;99.90;;;;;;5071948;28;20835;-40
2024/03/17 07:17:30;;;;;;;10.43;5.20;;;8.70;99.90;;;;;;5071571;28;20531;-41
2024/03/17 07:19:56;;;;;;;9.73;5.72;;;8.70;99.90;;;;;;5071545;28;20020;-40
2024/03/17 07:22:26;;;;;;;9.38;5.15;;;8.80;99.90;;;;;;5071586;28;20025;-39
2024/03/17 07:24:55;;;;;;;8.23;5.53;;;8.80;99.90;;;;;;5074056;28;20472;-41
2024/03/17 07:27:22;;;;;;;11.15;5.18;;;8.80;99.90;;;;;;5074277;28;20495;-40
2024/03/17 07:29:47;;;;;;;13.18;5.78;;;8.90;99.90;;;;;;5075347;28;20031;-40
2024/03/17 07:32:13;;;;;;;9.57;5.85;;;8.80;99.90;;;;;;5075133;28;20020;-54
2024/03/17 07:34:39;;;;;;;10.27;5.82;;;8.80;99.90;;;;;;5074728;28;20071;-55
2024/03/17 07:37:04;;;;;;;8.95;6.00;;;8.90;99.90;;;;;;5074951;28;20019;-51
2024/03/17 07:39:33;;;;;;;14.23;5.90;;;9.00;99.90;;;;;;5074829;28;20047;-55
2024/03/17 07:42:01;;;;;;;10.48;5.97;;;9.10;99.90;;;;;;5074839;28;20174;-58
2024/03/17 07:44:28;;;;;;;9.13;5.65;;;9.20;99.90;;;;;;5073498;28;20035;-55
2024/03/17 07:46:57;;;;;;;8.27;4.22;;;9.40;99.90;;;;;;5075074;28;20477;-56
2024/03/17 07:49:23;;;;;;;13.65;6.65;;;9.40;99.90;;;;;;5073302;28;20396;-56
2024/03/17 07:51:48;;;;;;;10.55;6.60;;;9.50;99.90;;;;;;5074379;28;20024;-53
2024/03/17 07:54:14;;;;;;;10.85;6.03;;;9.60;99.90;;;;;;5074561;28;20036;-56
2024/03/17 07:56:39;;;;;;;12.77;5.95;;;9.60;99.90;;;;;;5074821;28;20466;-54
2024/03/17 07:59:11;;;;;;;9.05;5.82;;;9.60;99.90;;;;;;5074589;28;20118;-55
2024/03/17 08:01:38;;;;;;;17.88;6.53;;;9.60;99.90;;;;;;5074754;28;20483;-54
2024/03/17 08:04:04;;;;;;;9.98;6.03;;;9.60;99.90;;;;;;5074353;28;20021;-52
2024/03/17 08:06:29;;;;;;;12.23;6.25;;;9.60;99.90;;;;;;5074399;28;20162;-50
2024/03/17 08:08:55;;;;;;;9.95;5.88;;;9.70;99.90;;;;;;5074209;28;20032;-55
2024/03/17 08:11:21;;;;;;;11.38;6.70;;;9.70;99.90;;;;;;5074132;28;20404;-54
2024/03/17 08:13:47;;;;;;;13.23;6.25;;;9.70;99.90;;;;;;5074270;28;20025;-54
2024/03/17 08:16:13;;;;;;;9.77;6.03;;;9.80;99.90;;;;;;5074147;28;20017;-55
2024/03/17 08:18:40;;;;;;;13.93;6.38;;;9.80;99.90;;;;;;5074108;28;20032;-55
2024/03/17 08:21:06;;;;;;;9.82;6.10;;;9.80;99.90;;;;;;5074072;28;20529;-55
2024/03/17 08:23:32;;;;;;;10.63;6.70;;;9.80;99.90;;;;;;5073960;28;20100;-55
2024/03/17 08:26:00;;;;;;;10.80;7.03;;;9.80;99.90;;;;;;5073838;28;20504;-54
2024/03/17 08:28:27;;;;;;;15.73;6.45;;;9.90;99.90;;;;;;5074570;28;20468;-54
2024/03/17 08:30:58;;;;;;;10.90;6.13;;;10.10;99.90;;;;;;5073875;28;20036;-56
2024/03/17 08:33:24;;;;;;;9.25;5.53;;;10.10;99.90;;;;;;5073774;28;20028;-54
2024/03/17 08:36:03;;;;;;;8.50;5.75;;;10.30;99.90;;;;;;5073505;28;20051;-55
2024/03/17 08:38:31;;;;;;;12.20;6.47;;;10.40;99.90;;;;;;5073787;28;20037;-56
2024/03/17 08:40:57;;;;;;;14.32;6.55;;;10.40;99.90;;;;;;5074006;28;20440;-56
2024/03/17 08:43:24;;;;;;;10.52;6.68;;;10.50;99.90;;;;;;5072422;28;20484;-55
2024/03/17 08:46:04;;;;;;;7.00;5.57;;;10.60;99.90;;;;;;5073882;28;20465;-53
2024/03/17 08:48:32;;;;;;;8.55;5.47;;;10.70;99.90;;;;;;5073675;28;20469;-56
2024/03/17 08:50:59;;;;;;;10.50;5.25;;;10.90;99.90;;;;;;5073503;28;20366;-52
2024/03/17 08:53:25;;;;;;;8.45;4.95;;;10.90;99.90;;;;;;5072227;28;20025;-55
2024/03/17 08:55:51;;;;;;;8.20;5.63;;;11.10;99.90;;;;;;5073214;28;20059;-51
2024/03/17 08:58:17;;;;;;;8.80;5.18;;;11.20;99.90;;;;;;5073113;28;20055;-55
2024/03/17 09:00:43;;;;;;;11.10;5.47;;;11.30;99.90;;;;;;5073163;28;20013;-55
2024/03/17 09:03:10;;;;;;;18.75;6.22;;;11.30;99.90;;;;;;5073487;28;20025;-50
2024/03/17 09:05:36;;;;;;;8.15;5.45;;;11.40;99.90;;;;;;5073286;28;20084;-43
2024/03/17 09:08:02;;;;;;;10.10;5.50;;;11.40;99.90;;;;;;5073476;28;20384;-40
2024/03/17 09:10:28;;;;;;;10.25;5.63;;;11.30;99.90;;;;;;5072957;28;20024;-54
2024/03/17 09:12:54;;;;;;;10.20;6.13;;;11.30;99.90;;;;;;5072988;28;20036;-54
2024/03/17 09:15:20;;;;;;;8.95;4.50;;;11.40;99.90;;;;;;5069835;28;20058;-54
2024/03/17 09:17:46;;;;;;;9.30;6.28;;;11.40;99.90;;;;;;5073247;28;20021;-53
2024/03/17 09:20:14;;;;;;;6.50;4.55;;;11.40;99.90;;;;;;5072865;28;20024;-55
2024/03/17 09:22:41;;;;;;;6.60;4.85;;;11.40;99.90;;;;;;5071623;28;20032;-55
2024/03/17 09:25:11;;;;;;;11.60;5.20;;;11.40;99.90;;;;;;5072814;28;20082;-52
2024/03/17 09:27:36;;;;;;;10.07;5.35;;;11.50;99.90;;;;;;5071548;28;20093;-53
2024/03/17 09:30:11;;;;;;;8.57;4.97;;;11.50;99.90;;;;;;5072803;28;20033;-52
2024/03/17 09:32:37;;;;;;;11.35;5.05;;;11.50;99.90;;;;;;5072616;28;20082;-55
2024/03/17 09:35:04;;;;;;;8.82;5.03;;;11.50;99.90;;;;;;5072598;28;20115;-54
2024/03/17 09:37:31;;;;;;;7.57;4.75;;;11.50;99.90;;;;;;5072500;28;20036;-55
2024/03/17 09:39:58;;;;;;;14.32;4.95;;;11.50;99.90;;;;;;5072533;28;20119;-54
2024/03/17 09:42:24;;;;;;;11.03;5.00;;;11.50;99.90;;;;;;5072452;28;20055;-52
2024/03/17 09:44:52;;;;;;;11.00;5.30;;;11.50;99.90;;;;;;5072560;28;20036;-54
2024/03/17 09:47:21;;;;;;;6.45;4.70;;;11.40;99.90;;;;;;5071923;28;20101;-54
2024/03/17 09:49:48;;;;;;;8.93;5.03;;;11.40;99.90;;;;;;5072181;28;20041;-55
2024/03/17 09:52:22;;;;;;;11.85;5.20;;;11.50;99.90;;;;;;5072523;28;20042;-54
2024/03/17 09:55:09;;;;;;;11.45;4.35;;;11.50;99.90;;;;;;5072269;28;20060;-53
2024/03/17 09:57:36;;;;;;;9.93;5.20;;;11.50;99.90;;;;;;5072706;28;20025;-54
2024/03/17 10:00:12;;;;;;;6.28;4.85;;;11.60;99.90;;;;;;5072356;28;20477;-53
2024/03/17 10:02:43;;;;;;;6.95;5.13;;;11.70;99.90;;;;;;5071805;28;20040;-54
2024/03/17 10:05:22;;;;;;;13.05;5.30;;;11.80;99.90;;;;;;5072163;28;20028;-53
2024/03/17 10:07:49;;;;;;;8.10;5.05;;;12.00;99.90;;;;;;5072085;28;20032;-54
2024/03/17 10:10:16;;;;;;;8.30;5.25;;;12.20;99.90;;;;;;5054358;28;20024;-53
2024/03/17 10:12:42;;;;;;;10.38;5.18;;;12.30;99.90;;;;;;5070783;28;20052;-50
2024/03/17 10:15:12;;;;;;;8.45;4.65;;;12.40;99.90;;;;;;5072366;28;20024;-51
2024/03/17 10:17:38;;;;;;;7.30;4.80;;;12.60;99.90;;;;;;5072450;28;20055;-39
2024/03/17 10:20:21;;;;;;;8.15;5.07;;;12.70;99.90;;;;;;5072226;28;20032;-43
2024/03/17 10:23:09;;;;;;;10.40;5.10;;;12.80;99.90;;;;;;5072119;28;20036;-39
2024/03/17 10:25:39;;;;;;;10.18;4.78;;;12.90;99.90;;;;;;5072237;28;20535;-39
2024/03/17 10:28:16;;;;;;;7.32;4.20;;;13.10;99.90;;;;;;5070933;28;20515;-39
2024/03/17 10:30:56;;;;;;;7.17;4.60;;;13.30;99.90;;;;;;5072418;28;20074;-39
2024/03/17 10:33:25;;;;;;;8.93;4.50;;;13.40;99.90;;;;;;5072044;28;20051;-39
2024/03/17 10:35:57;;;;;;;8.02;4.90;;;13.60;99.90;;;;;;5072212;28;20029;-38
2024/03/17 10:38:23;;;;;;;7.13;4.50;;;13.70;99.90;;;;;;5070641;28;20504;-40
2024/03/17 10:40:48;;;;;;;5.57;4.13;;;13.90;99.90;;;;;;5069686;28;20024;-40
2024/03/17 10:43:14;;;;;;;8.70;4.72;;;13.80;99.90;;;;;;5071888;28;20366;-41
2024/03/17 10:45:41;;;;;;;7.45;4.85;;;13.80;99.90;;;;;;5072141;28;20025;-49
2024/03/17 10:48:08;;;;;;;8.60;4.13;;;13.80;99.90;;;;;;5070499;28;20032;-40
2024/03/17 10:50:37;;;;;;;7.43;4.45;;;13.80;99.90;;;;;;5071739;28;20029;-39
2024/03/17 10:53:08;;;;;;;9.98;4.72;;;13.90;99.90;;;;;;5071716;28;20033;-38
2024/03/17 10:55:44;;;;;;;6.60;3.72;;;13.90;99.90;;;;;;5071955;28;20366;-38
2024/03/17 10:58:28;;;;;;;8.43;4.55;;;13.90;99.90;;;;;;5071716;28;20477;-38
2024/03/17 11:00:55;;;;;;;6.78;4.55;;;13.90;99.90;;;;;;5075704;28;20054;-53
2024/03/17 11:03:21;;;;;;;6.38;4.30;;;13.90;99.90;;;;;;5075577;28;20074;-54
2024/03/17 11:05:49;;;;;;;9.27;5.13;;;14.00;99.90;;;;;;5075445;28;20032;-51
2024/03/17 11:08:16;;;;;;;10.20;5.50;;;14.00;99.90;;;;;;5075403;28;20032;-54
2024/03/17 11:10:50;;;;;;;6.25;4.30;;;14.10;99.90;;;;;;5075237;28;20043;-52
2024/03/17 11:13:27;;;;;;;8.10;4.55;;;14.20;99.90;;;;;;5064652;28;20524;-53
2024/03/17 11:15:55;;;;;;;7.43;4.60;;;14.30;99.90;;;;;;5070283;28;20461;-55
2024/03/17 11:18:21;;;;;;;7.25;4.55;;;14.40;99.90;;;;;;5069469;28;20313;-42
2024/03/17 11:21:23;;;;;;;5.20;3.42;;;14.50;99.90;;;;;;5062399;28;20481;-39
2024/03/17 11:24:00;;;;;;;6.68;3.78;;;14.50;99.90;;;;;;5044843;28;20497;-40
2024/03/17 11:26:33;;;;;;;6.13;4.60;;;14.40;99.90;;;;;;5067077;28;20465;-42
2024/03/17 11:29:02;;;;;;;5.65;3.97;;;14.40;99.90;;;;;;5075036;28;20081;-41
2024/03/17 11:31:43;;;;;;;7.95;4.22;;;14.30;99.90;;;;;;5074710;28;20500;-42
2024/03/17 11:34:40;;;;;;;5.50;4.03;;;14.30;99.90;;;;;;5074928;28;20028;-40
2024/03/17 11:37:08;;;;;;;6.53;4.07;;;14.30;99.90;;;;;;5073659;28;20041;-40
2024/03/17 11:39:53;;;;;;;9.05;4.43;;;14.20;99.90;;;;;;5074883;28;20048;-39
2024/03/17 11:42:20;;;;;;;6.68;4.78;;;14.30;99.90;;;;;;5074763;28;20089;-39
2024/03/17 11:45:00;;;;;;;7.30;4.63;;;14.30;99.90;;;;;;5074263;28;20488;-38
2024/03/17 11:47:40;;;;;;;9.38;4.97;;;14.50;99.90;;;;;;5073912;28;20051;-43
2024/03/17 11:50:09;;;;;;;9.00;4.28;;;14.50;99.90;;;;;;5074703;28;20043;-39
2024/03/17 11:52:35;;;;;;;10.63;5.03;;;14.50;99.90;;;;;;5074683;28;20108;-41
2024/03/17 11:55:01;;;;;;;7.30;4.40;;;14.50;99.90;;;;;;5073750;28;20108;-41
2024/03/17 11:57:27;;;;;;;6.90;4.97;;;14.70;99.90;;;;;;5071995;28;20028;-41
2024/03/17 11:59:55;;;;;;;7.78;5.28;;;14.80;99.90;;;;;;5074166;28;20024;-50
2024/03/17 12:02:26;;;;;;;6.32;3.15;;;14.80;99.90;;;;;;5073975;28;20028;-39
2024/03/17 12:04:58;;;;;;;10.27;4.07;;;14.80;99.90;;;;;;5074069;28;20047;-42
2024/03/17 12:07:24;;;;;;;5.30;4.30;;;14.70;99.90;;;;;;5074299;28;20043;-44
2024/03/17 12:09:51;;;;;;;8.27;5.00;;;14.60;99.90;;;;;;5074037;28;20096;-39
2024/03/17 12:12:22;;;;;;;11.75;5.70;;;14.60;99.90;;;;;;5074232;28;20056;-40
2024/03/17 12:14:49;;;;;;;7.15;4.43;;;14.60;99.90;;;;;;5074380;28;20524;-39
2024/03/17 12:17:23;;;;;;;7.63;4.47;;;14.60;99.90;;;;;;5074245;28;20024;-39
2024/03/17 12:19:49;;;;;;;9.63;5.28;;;14.60;99.90;;;;;;5074036;28;20032;-40
2024/03/17 12:22:21;;;;;;;11.80;4.55;;;14.50;99.90;;;;;;5074055;28;20043;-40
2024/03/17 12:24:49;;;;;;;5.80;4.32;;;14.50;99.90;;;;;;5054370;28;20523;-39
2024/03/17 12:27:18;;;;;;;;;;;14.50;99.90;;;;;;5054519;28;20033;-40
2024/03/17 12:29:44;;;;;;;7.65;5.03;;;14.60;99.90;;;;;;5054308;28;19977;-39
2024/03/17 12:32:11;;;;;;;6.38;4.80;;;14.40;99.90;;;;;;5054213;28;20508;-39
2024/03/17 12:34:37;;;;;;;8.82;5.07;;;14.30;99.90;;;;;;5053759;28;20147;-40
2024/03/17 12:37:04;;;;;;;9.93;4.60;;;14.30;99.90;;;;;;5053756;28;20493;-40
2024/03/17 12:39:31;;;;;;;8.68;4.25;;;14.20;99.90;;;;;;5056783;28;20500;-47
2024/03/17 12:42:38;;;;;;;5.50;4.50;;;14.20;99.90;;;;;;5060834;28;20077;-42
2024/03/17 12:45:09;;;;;;;8.07;4.57;;;14.10;99.90;;;;;;5052269;28;20041;-40
2024/03/17 12:47:35;;;;;;;9.27;4.75;;;14.10;99.90;;;;;;5053790;28;20037;-41
2024/03/17 12:50:02;;;;;;;9.07;5.40;;;14.00;99.90;;;;;;5054472;28;20477;-39
2024/03/17 12:52:33;;;;;;;11.30;5.10;;;13.90;99.90;;;;;;5073738;28;20025;-40
2024/03/17 13:00:36;;;;;;;11.75;5.68;;;13.80;99.90;;;;;;5073543;28;20058;-42
2024/03/17 13:03:06;;;;;;;7.70;4.95;;;13.80;99.90;;;;;;5073518;28;20447;-41